TimeCDT,TemperatureF,Dew PointF,Humidity,Sea Level PressureIn,VisibilityMPH,Wind Direction,Wind SpeedMPH,Gust SpeedMPH,PrecipitationIn,Events,Conditions,WindDirDegrees,DateUTC
12:58 AM,72.5,55.0,54,30.16,10.0,ENE,12.7,-,N/A,,Clear,60,2013-05-25 05:58:00
1:58 AM,70.0,55.8,61,30.15,10.0,NE,13.8,-,N/A,,Clear,50,2013-05-25 06:58:00
2:58 AM,67.8,54.9,63,30.16,10.0,ENE,6.9,-,N/A,,Clear,60,2013-05-25 07:58:00
3:58 AM,65.8,54.3,66,30.16,10.0,ENE,5.8,-,N/A,,Clear,60,2013-05-25 08:58:00
4:58 AM,64.9,53.1,65,30.18,10.0,ENE,8.1,-,N/A,,Clear,70,2013-05-25 09:58:00
5:58 AM,64.9,50.9,60,30.20,10.0,ENE,8.1,-,N/A,,Clear,60,2013-05-25 10:58:00
6:58 AM,64.9,50.0,58,30.22,10.0,ENE,10.4,-,N/A,,Clear,70,2013-05-25 11:58:00
7:58 AM,68.4,49.5,51,30.24,10.0,ENE,10.4,-,N/A,,Clear,70,2013-05-25 12:58:00
8:58 AM,73.0,50.4,45,30.25,10.0,ENE,9.2,-,N/A,,Clear,70,2013-05-25 13:58:00
9:58 AM,76.3,51.3,41,30.25,10.0,ENE,8.1,-,N/A,,Clear,70,2013-05-25 14:58:00
10:58 AM,79.2,52.3,39,30.24,10.0,ESE,8.1,-,N/A,,Clear,120,2013-05-25 15:58:00
11:58 AM,81.0,53.8,39,30.24,10.0,East,6.9,-,N/A,,Clear,80,2013-05-25 16:58:00
12:58 PM,82.0,59.0,45,30.22,10.0,SE,10.4,-,N/A,,Clear,140,2013-05-25 17:58:00
1:58 PM,81.5,59.9,48,30.21,10.0,South,12.7,-,N/A,,Clear,180,2013-05-25 18:58:00
2:58 PM,82.4,62.8,51,30.19,10.0,South,11.5,-,N/A,,Clear,170,2013-05-25 19:58:00
3:58 PM,81.9,61.3,50,30.18,10.0,SSE,8.1,-,N/A,,Clear,150,2013-05-25 20:58:00
4:58 PM,81.0,62.4,53,30.18,10.0,South,6.9,-,N/A,,Clear,170,2013-05-25 21:58:00
5:58 PM,80.6,62.4,54,30.17,10.0,South,10.4,-,N/A,,Clear,170,2013-05-25 22:58:00
6:58 PM,78.8,61.9,56,30.16,10.0,South,5.8,-,N/A,,Clear,180,2013-05-25 23:58:00
7:58 PM,77.2,62.8,61,30.16,10.0,SSE,3.5,-,N/A,,Clear,150,2013-05-26 00:58:00
8:58 PM,76.5,63.0,63,30.17,10.0,South,4.6,-,N/A,,Clear,170,2013-05-26 01:58:00
9:58 PM,76.5,62.2,61,30.18,10.0,South,3.5,-,N/A,,Mostly Cloudy,170,2013-05-26 02:58:00
10:58 PM,74.5,62.2,66,30.18,10.0,Calm,Calm,-,N/A,,Clear,0,2013-05-26 03:58:00
11:58 PM,72.9,65.7,78,30.18,10.0,Calm,Calm,-,N/A,,Clear,0,2013-05-26 04:58:00